sensor_id;sensor_type;location;lat;lon;timestamp;P1;durP1;ratioP1;P2;durP2;ratioP2
42912;SDS011;50720;54.324;18.558;2024-03-08T00:00:44;61.78;;;30.45;;
42912;SDS011;50720;54.324;18.558;2024-03-08T00:03:28;69.40;;;29.80;;
42912;SDS011;50720;54.324;18.558;2024-03-08T00:06:13;65.13;;;30.10;;
42912;SDS011;50720;54.324;18.558;2024-03-08T00:08:58;70.10;;;30.85;;
42912;SDS011;50720;54.324;18.558;2024-03-08T00:11:42;56.15;;;27.27;;
42912;SDS011;50720;54.324;18.558;2024-03-08T00:14:25;55.53;;;28.23;;
42912;SDS011;50720;54.324;18.558;2024-03-08T00:17:09;61.10;;;29.52;;
42912;SDS011;50720;54.324;18.558;2024-03-08T00:19:53;66.22;;;28.98;;
42912;SDS011;50720;54.324;18.558;2024-03-08T00:22:37;67.80;;;29.77;;
42912;SDS011;50720;54.324;18.558;2024-03-08T00:25:22;53.58;;;25.95;;
42912;SDS011;50720;54.324;18.558;2024-03-08T00:28:06;54.72;;;25.98;;
42912;SDS011;50720;54.324;18.558;2024-03-08T00:30:49;57.45;;;25.67;;
42912;SDS011;50720;54.324;18.558;2024-03-08T00:33:32;63.45;;;27.45;;
42912;SDS011;50720;54.324;18.558;2024-03-08T00:36:16;61.05;;;27.25;;
42912;SDS011;50720;54.324;18.558;2024-03-08T00:39:00;63.10;;;30.10;;
42912;SDS011;50720;54.324;18.558;2024-03-08T00:41:45;62.53;;;27.35;;
42912;SDS011;50720;54.324;18.558;2024-03-08T00:44:28;61.70;;;28.27;;
42912;SDS011;50720;54.324;18.558;2024-03-08T00:47:13;55.17;;;29.63;;
42912;SDS011;50720;54.324;18.558;2024-03-08T00:49:57;68.88;;;30.25;;
42912;SDS011;50720;54.324;18.558;2024-03-08T00:52:41;68.32;;;31.67;;
42912;SDS011;50720;54.324;18.558;2024-03-08T00:55:24;69.80;;;28.20;;
42912;SDS011;50720;54.324;18.558;2024-03-08T00:58:09;59.97;;;27.67;;
42912;SDS011;50720;54.324;18.558;2024-03-08T01:00:53;67.25;;;30.00;;
42912;SDS011;50720;54.324;18.558;2024-03-08T01:03:38;68.78;;;28.33;;
42912;SDS011;50720;54.324;18.558;2024-03-08T01:06:23;63.80;;;29.23;;
42912;SDS011;50720;54.324;18.558;2024-03-08T01:09:06;54.92;;;27.20;;
42912;SDS011;50720;54.324;18.558;2024-03-08T01:11:51;65.35;;;27.90;;
42912;SDS011;50720;54.324;18.558;2024-03-08T01:14:35;56.22;;;26.58;;
42912;SDS011;50720;54.324;18.558;2024-03-08T01:17:19;56.05;;;26.60;;
42912;SDS011;50720;54.324;18.558;2024-03-08T01:20:03;69.40;;;28.30;;
42912;SDS011;50720;54.324;18.558;2024-03-08T01:22:47;63.67;;;30.95;;
42912;SDS011;50720;54.324;18.558;2024-03-08T01:25:31;65.07;;;30.38;;
42912;SDS011;50720;54.324;18.558;2024-03-08T01:28:14;69.65;;;31.25;;
42912;SDS011;50720;54.324;18.558;2024-03-08T01:30:59;63.83;;;27.85;;
42912;SDS011;50720;54.324;18.558;2024-03-08T01:33:42;59.97;;;28.98;;
42912;SDS011;50720;54.324;18.558;2024-03-08T01:36:27;62.33;;;27.73;;
42912;SDS011;50720;54.324;18.558;2024-03-08T01:39:10;67.80;;;29.80;;
42912;SDS011;50720;54.324;18.558;2024-03-08T01:41:54;67.78;;;27.98;;
42912;SDS011;50720;54.324;18.558;2024-03-08T01:44:37;59.72;;;29.35;;
42912;SDS011;50720;54.324;18.558;2024-03-08T01:47:22;63.20;;;31.55;;
42912;SDS011;50720;54.324;18.558;2024-03-08T01:50:06;57.97;;;27.15;;
42912;SDS011;50720;54.324;18.558;2024-03-08T01:52:52;61.75;;;29.88;;
42912;SDS011;50720;54.324;18.558;2024-03-08T01:55:37;69.13;;;30.00;;
42912;SDS011;50720;54.324;18.558;2024-03-08T01:58:22;66.78;;;29.55;;
42912;SDS011;50720;54.324;18.558;2024-03-08T02:01:05;60.03;;;27.90;;
42912;SDS011;50720;54.324;18.558;2024-03-08T02:03:52;58.38;;;27.83;;
42912;SDS011;50720;54.324;18.558;2024-03-08T02:06:35;59.05;;;26.92;;
42912;SDS011;50720;54.324;18.558;2024-03-08T02:09:20;64.38;;;28.60;;
42912;SDS011;50720;54.324;18.558;2024-03-08T02:12:04;64.07;;;28.08;;
42912;SDS011;50720;54.324;18.558;2024-03-08T02:14:47;61.13;;;27.88;;
42912;SDS011;50720;54.324;18.558;2024-03-08T02:17:31;69.43;;;28.20;;
42912;SDS011;50720;54.324;18.558;2024-03-08T02:20:16;57.10;;;26.52;;
42912;SDS011;50720;54.324;18.558;2024-03-08T02:23:02;57.95;;;26.48;;
42912;SDS011;50720;54.324;18.558;2024-03-08T02:25:46;64.70;;;28.23;;
42912;SDS011;50720;54.324;18.558;2024-03-08T02:28:30;64.07;;;28.08;;
42912;SDS011;50720;54.324;18.558;2024-03-08T02:31:14;64.53;;;30.02;;
42912;SDS011;50720;54.324;18.558;2024-03-08T02:33:57;63.85;;;27.38;;
42912;SDS011;50720;54.324;18.558;2024-03-08T02:36:41;61.15;;;28.85;;
42912;SDS011;50720;54.324;18.558;2024-03-08T02:39:26;51.13;;;24.92;;
42912;SDS011;50720;54.324;18.558;2024-03-08T02:42:09;66.93;;;28.30;;
42912;SDS011;50720;54.324;18.558;2024-03-08T02:44:53;68.85;;;27.75;;
42912;SDS011;50720;54.324;18.558;2024-03-08T02:47:36;59.78;;;30.30;;
42912;SDS011;50720;54.324;18.558;2024-03-08T02:50:20;66.43;;;27.63;;
42912;SDS011;50720;54.324;18.558;2024-03-08T02:53:03;64.13;;;31.23;;
42912;SDS011;50720;54.324;18.558;2024-03-08T02:55:48;62.17;;;27.88;;
42912;SDS011;50720;54.324;18.558;2024-03-08T02:58:32;63.88;;;28.67;;
42912;SDS011;50720;54.324;18.558;2024-03-08T03:01:15;58.47;;;25.75;;
42912;SDS011;50720;54.324;18.558;2024-03-08T03:04:02;53.10;;;26.55;;
42912;SDS011;50720;54.324;18.558;2024-03-08T03:06:45;55.35;;;25.70;;
42912;SDS011;50720;54.324;18.558;2024-03-08T03:09:28;57.05;;;26.80;;
42912;SDS011;50720;54.324;18.558;2024-03-08T03:12:15;58.45;;;24.95;;
42912;SDS011;50720;54.324;18.558;2024-03-08T03:14:59;57.67;;;26.10;;
42912;SDS011;50720;54.324;18.558;2024-03-08T03:17:45;51.40;;;26.05;;
42912;SDS011;50720;54.324;18.558;2024-03-08T03:20:30;55.65;;;28.52;;
42912;SDS011;50720;54.324;18.558;2024-03-08T03:23:18;52.85;;;26.83;;
42912;SDS011;50720;54.324;18.558;2024-03-08T03:26:03;60.25;;;28.05;;
42912;SDS011;50720;54.324;18.558;2024-03-08T03:28:50;61.10;;;27.90;;
42912;SDS011;50720;54.324;18.558;2024-03-08T03:31:33;61.05;;;29.55;;
42912;SDS011;50720;54.324;18.558;2024-03-08T03:34:17;62.95;;;29.48;;
42912;SDS011;50720;54.324;18.558;2024-03-08T03:37:01;67.55;;;27.08;;
42912;SDS011;50720;54.324;18.558;2024-03-08T03:39:45;62.90;;;28.30;;
42912;SDS011;50720;54.324;18.558;2024-03-08T03:42:31;61.17;;;27.20;;
42912;SDS011;50720;54.324;18.558;2024-03-08T03:45:17;59.10;;;26.27;;
42912;SDS011;50720;54.324;18.558;2024-03-08T03:48:02;63.83;;;28.33;;
42912;SDS011;50720;54.324;18.558;2024-03-08T03:50:45;64.43;;;27.50;;
42912;SDS011;50720;54.324;18.558;2024-03-08T03:53:29;75.95;;;31.90;;
42912;SDS011;50720;54.324;18.558;2024-03-08T03:56:12;66.15;;;30.55;;
42912;SDS011;50720;54.324;18.558;2024-03-08T03:58:56;77.18;;;33.00;;
42912;SDS011;50720;54.324;18.558;2024-03-08T04:01:43;76.30;;;32.95;;
42912;SDS011;50720;54.324;18.558;2024-03-08T04:04:26;73.72;;;31.02;;
42912;SDS011;50720;54.324;18.558;2024-03-08T04:07:10;70.38;;;34.20;;
42912;SDS011;50720;54.324;18.558;2024-03-08T04:09:54;73.50;;;29.98;;
42912;SDS011;50720;54.324;18.558;2024-03-08T04:12:37;81.60;;;30.73;;
42912;SDS011;50720;54.324;18.558;2024-03-08T04:15:21;76.72;;;32.03;;
42912;SDS011;50720;54.324;18.558;2024-03-08T04:18:06;71.53;;;31.27;;
42912;SDS011;50720;54.324;18.558;2024-03-08T04:20:49;69.38;;;30.13;;
42912;SDS011;50720;54.324;18.558;2024-03-08T04:23:33;65.57;;;28.77;;
42912;SDS011;50720;54.324;18.558;2024-03-08T04:26:17;82.63;;;31.10;;
42912;SDS011;50720;54.324;18.558;2024-03-08T04:29:01;72.22;;;31.23;;
42912;SDS011;50720;54.324;18.558;2024-03-08T04:31:45;73.95;;;30.08;;
42912;SDS011;50720;54.324;18.558;2024-03-08T04:34:29;72.10;;;29.08;;
42912;SDS011;50720;54.324;18.558;2024-03-08T04:37:13;59.15;;;27.10;;
42912;SDS011;50720;54.324;18.558;2024-03-08T04:39:58;66.25;;;30.58;;
42912;SDS011;50720;54.324;18.558;2024-03-08T04:42:42;76.68;;;27.92;;
42912;SDS011;50720;54.324;18.558;2024-03-08T04:45:25;66.70;;;25.88;;
42912;SDS011;50720;54.324;18.558;2024-03-08T04:48:09;66.03;;;27.15;;
42912;SDS011;50720;54.324;18.558;2024-03-08T04:50:54;65.72;;;25.15;;
42912;SDS011;50720;54.324;18.558;2024-03-08T04:53:38;56.50;;;22.80;;
42912;SDS011;50720;54.324;18.558;2024-03-08T04:56:21;63.13;;;24.15;;
42912;SDS011;50720;54.324;18.558;2024-03-08T04:59:05;52.08;;;24.40;;
42912;SDS011;50720;54.324;18.558;2024-03-08T05:01:49;55.58;;;23.83;;
42912;SDS011;50720;54.324;18.558;2024-03-08T05:04:33;57.80;;;23.58;;
42912;SDS011;50720;54.324;18.558;2024-03-08T05:07:18;59.80;;;24.05;;
42912;SDS011;50720;54.324;18.558;2024-03-08T05:10:01;64.10;;;24.70;;
42912;SDS011;50720;54.324;18.558;2024-03-08T05:12:46;69.18;;;25.58;;
42912;SDS011;50720;54.324;18.558;2024-03-08T05:15:30;53.90;;;23.65;;
42912;SDS011;50720;54.324;18.558;2024-03-08T05:18:16;61.75;;;25.55;;
42912;SDS011;50720;54.324;18.558;2024-03-08T05:20:59;51.72;;;25.05;;
42912;SDS011;50720;54.324;18.558;2024-03-08T05:23:47;64.32;;;26.98;;
42912;SDS011;50720;54.324;18.558;2024-03-08T05:26:31;62.42;;;26.58;;
42912;SDS011;50720;54.324;18.558;2024-03-08T05:29:15;62.55;;;26.75;;
42912;SDS011;50720;54.324;18.558;2024-03-08T05:32:00;65.75;;;25.60;;
42912;SDS011;50720;54.324;18.558;2024-03-08T05:34:44;56.35;;;23.15;;
42912;SDS011;50720;54.324;18.558;2024-03-08T05:37:28;60.22;;;25.05;;
42912;SDS011;50720;54.324;18.558;2024-03-08T05:40:14;52.08;;;23.88;;
42912;SDS011;50720;54.324;18.558;2024-03-08T05:43:01;66.00;;;26.60;;
42912;SDS011;50720;54.324;18.558;2024-03-08T05:45:44;48.25;;;24.08;;
42912;SDS011;50720;54.324;18.558;2024-03-08T05:48:28;55.70;;;24.13;;
42912;SDS011;50720;54.324;18.558;2024-03-08T05:51:13;50.25;;;24.40;;
42912;SDS011;50720;54.324;18.558;2024-03-08T05:53:57;46.25;;;21.80;;
42912;SDS011;50720;54.324;18.558;2024-03-08T05:56:42;42.90;;;19.42;;
42912;SDS011;50720;54.324;18.558;2024-03-08T05:59:26;38.10;;;18.23;;
42912;SDS011;50720;54.324;18.558;2024-03-08T06:02:10;38.40;;;17.38;;
42912;SDS011;50720;54.324;18.558;2024-03-08T06:04:53;38.45;;;16.17;;
42912;SDS011;50720;54.324;18.558;2024-03-08T06:07:37;30.77;;;14.77;;
42912;SDS011;50720;54.324;18.558;2024-03-08T06:10:22;36.10;;;16.50;;
42912;SDS011;50720;54.324;18.558;2024-03-08T06:13:07;34.15;;;14.20;;
42912;SDS011;50720;54.324;18.558;2024-03-08T06:15:53;27.45;;;12.95;;
42912;SDS011;50720;54.324;18.558;2024-03-08T06:18:37;28.08;;;12.60;;
42912;SDS011;50720;54.324;18.558;2024-03-08T06:21:23;29.67;;;14.30;;
42912;SDS011;50720;54.324;18.558;2024-03-08T06:24:07;33.00;;;13.80;;
42912;SDS011;50720;54.324;18.558;2024-03-08T06:26:51;24.33;;;12.63;;
42912;SDS011;50720;54.324;18.558;2024-03-08T06:29:36;29.70;;;13.70;;
42912;SDS011;50720;54.324;18.558;2024-03-08T06:32:20;26.40;;;14.63;;
42912;SDS011;50720;54.324;18.558;2024-03-08T06:35:04;25.38;;;13.98;;
42912;SDS011;50720;54.324;18.558;2024-03-08T06:37:49;29.70;;;14.10;;
42912;SDS011;50720;54.324;18.558;2024-03-08T06:40:33;26.40;;;13.82;;
42912;SDS011;50720;54.324;18.558;2024-03-08T06:43:16;31.60;;;14.52;;
42912;SDS011;50720;54.324;18.558;2024-03-08T06:46:02;35.15;;;16.17;;
42912;SDS011;50720;54.324;18.558;2024-03-08T06:48:45;30.02;;;14.60;;
42912;SDS011;50720;54.324;18.558;2024-03-08T06:51:31;30.23;;;15.38;;
42912;SDS011;50720;54.324;18.558;2024-03-08T06:54:15;36.00;;;14.68;;
42912;SDS011;50720;54.324;18.558;2024-03-08T06:56:59;33.85;;;16.40;;
42912;SDS011;50720;54.324;18.558;2024-03-08T06:59:42;33.25;;;15.85;;
42912;SDS011;50720;54.324;18.558;2024-03-08T07:02:27;34.33;;;15.45;;
42912;SDS011;50720;54.324;18.558;2024-03-08T07:05:11;29.58;;;14.57;;
42912;SDS011;50720;54.324;18.558;2024-03-08T07:07:54;36.75;;;18.13;;
42912;SDS011;50720;54.324;18.558;2024-03-08T07:10:38;29.77;;;16.10;;
42912;SDS011;50720;54.324;18.558;2024-03-08T07:13:23;30.05;;;15.52;;
42912;SDS011;50720;54.324;18.558;2024-03-08T07:16:06;31.35;;;15.70;;
42912;SDS011;50720;54.324;18.558;2024-03-08T07:18:51;37.13;;;16.33;;
42912;SDS011;50720;54.324;18.558;2024-03-08T07:21:35;34.88;;;18.08;;
42912;SDS011;50720;54.324;18.558;2024-03-08T07:24:19;31.55;;;15.70;;
42912;SDS011;50720;54.324;18.558;2024-03-08T07:27:19;35.20;;;17.43;;
42912;SDS011;50720;54.324;18.558;2024-03-08T07:30:03;30.52;;;15.18;;
42912;SDS011;50720;54.324;18.558;2024-03-08T07:32:49;27.27;;;14.40;;
42912;SDS011;50720;54.324;18.558;2024-03-08T07:35:34;28.55;;;15.13;;
42912;SDS011;50720;54.324;18.558;2024-03-08T07:38:19;23.83;;;13.30;;
42912;SDS011;50720;54.324;18.558;2024-03-08T07:41:03;28.02;;;14.73;;
42912;SDS011;50720;54.324;18.558;2024-03-08T07:43:46;31.45;;;13.07;;
42912;SDS011;50720;54.324;18.558;2024-03-08T07:46:30;33.65;;;16.98;;
42912;SDS011;50720;54.324;18.558;2024-03-08T07:49:15;37.15;;;17.20;;
42912;SDS011;50720;54.324;18.558;2024-03-08T07:52:01;39.65;;;18.95;;
42912;SDS011;50720;54.324;18.558;2024-03-08T07:54:45;26.85;;;15.20;;
42912;SDS011;50720;54.324;18.558;2024-03-08T07:57:29;26.65;;;14.38;;
42912;SDS011;50720;54.324;18.558;2024-03-08T08:00:13;30.75;;;15.20;;
42912;SDS011;50720;54.324;18.558;2024-03-08T08:02:59;31.90;;;16.83;;
42912;SDS011;50720;54.324;18.558;2024-03-08T08:05:43;31.65;;;17.83;;
42912;SDS011;50720;54.324;18.558;2024-03-08T08:08:28;37.00;;;16.73;;
42912;SDS011;50720;54.324;18.558;2024-03-08T08:11:13;34.55;;;16.65;;
42912;SDS011;50720;54.324;18.558;2024-03-08T08:13:57;34.15;;;17.00;;
42912;SDS011;50720;54.324;18.558;2024-03-08T08:16:41;36.13;;;17.17;;
42912;SDS011;50720;54.324;18.558;2024-03-08T08:19:26;35.00;;;17.70;;
42912;SDS011;50720;54.324;18.558;2024-03-08T08:22:10;31.40;;;16.38;;
42912;SDS011;50720;54.324;18.558;2024-03-08T08:24:55;27.67;;;12.70;;
42912;SDS011;50720;54.324;18.558;2024-03-08T08:27:38;29.30;;;13.70;;
42912;SDS011;50720;54.324;18.558;2024-03-08T08:30:24;23.83;;;12.50;;
42912;SDS011;50720;54.324;18.558;2024-03-08T08:33:07;21.48;;;12.00;;
42912;SDS011;50720;54.324;18.558;2024-03-08T08:35:52;31.35;;;14.25;;
42912;SDS011;50720;54.324;18.558;2024-03-08T08:38:36;33.72;;;16.83;;
42912;SDS011;50720;54.324;18.558;2024-03-08T08:41:21;27.08;;;13.98;;
42912;SDS011;50720;54.324;18.558;2024-03-08T08:44:04;29.63;;;13.93;;
42912;SDS011;50720;54.324;18.558;2024-03-08T08:46:54;26.08;;;13.25;;
42912;SDS011;50720;54.324;18.558;2024-03-08T08:49:50;35.05;;;14.48;;
42912;SDS011;50720;54.324;18.558;2024-03-08T08:52:33;47.97;;;15.60;;
42912;SDS011;50720;54.324;18.558;2024-03-08T08:55:20;35.05;;;16.13;;
42912;SDS011;50720;54.324;18.558;2024-03-08T08:58:09;31.77;;;15.95;;
42912;SDS011;50720;54.324;18.558;2024-03-08T09:00:52;29.10;;;15.63;;
42912;SDS011;50720;54.324;18.558;2024-03-08T09:03:36;33.65;;;14.90;;
42912;SDS011;50720;54.324;18.558;2024-03-08T09:06:21;30.50;;;15.85;;
42912;SDS011;50720;54.324;18.558;2024-03-08T09:09:06;30.55;;;15.70;;
42912;SDS011;50720;54.324;18.558;2024-03-08T09:11:52;31.63;;;14.35;;
42912;SDS011;50720;54.324;18.558;2024-03-08T09:14:37;27.95;;;14.35;;
42912;SDS011;50720;54.324;18.558;2024-03-08T09:17:21;30.00;;;14.65;;
42912;SDS011;50720;54.324;18.558;2024-03-08T09:20:05;36.00;;;16.83;;
42912;SDS011;50720;54.324;18.558;2024-03-08T09:22:50;26.42;;;13.43;;
42912;SDS011;50720;54.324;18.558;2024-03-08T09:25:33;35.17;;;15.45;;
42912;SDS011;50720;54.324;18.558;2024-03-08T09:28:17;38.72;;;16.85;;
42912;SDS011;50720;54.324;18.558;2024-03-08T09:31:02;33.10;;;15.18;;
42912;SDS011;50720;54.324;18.558;2024-03-08T09:33:46;27.63;;;13.80;;
42912;SDS011;50720;54.324;18.558;2024-03-08T09:36:30;28.35;;;13.57;;
42912;SDS011;50720;54.324;18.558;2024-03-08T09:39:14;34.60;;;14.52;;
42912;SDS011;50720;54.324;18.558;2024-03-08T09:42:00;29.50;;;12.05;;
42912;SDS011;50720;54.324;18.558;2024-03-08T09:44:45;26.38;;;11.93;;
42912;SDS011;50720;54.324;18.558;2024-03-08T09:47:30;26.17;;;12.35;;
42912;SDS011;50720;54.324;18.558;2024-03-08T09:50:15;24.30;;;11.82;;
42912;SDS011;50720;54.324;18.558;2024-03-08T09:52:59;26.38;;;13.18;;
42912;SDS011;50720;54.324;18.558;2024-03-08T09:55:44;25.80;;;11.80;;
42912;SDS011;50720;54.324;18.558;2024-03-08T09:58:28;24.80;;;12.35;;
42912;SDS011;50720;54.324;18.558;2024-03-08T10:01:35;21.73;;;10.45;;
42912;SDS011;50720;54.324;18.558;2024-03-08T10:04:22;25.48;;;12.30;;
42912;SDS011;50720;54.324;18.558;2024-03-08T10:07:05;22.05;;;12.02;;
42912;SDS011;50720;54.324;18.558;2024-03-08T10:09:51;20.58;;;11.65;;
42912;SDS011;50720;54.324;18.558;2024-03-08T10:12:35;29.23;;;13.63;;
42912;SDS011;50720;54.324;18.558;2024-03-08T10:15:19;26.88;;;12.52;;
42912;SDS011;50720;54.324;18.558;2024-03-08T10:18:03;24.17;;;12.52;;
42912;SDS011;50720;54.324;18.558;2024-03-08T10:20:48;29.35;;;11.55;;
42912;SDS011;50720;54.324;18.558;2024-03-08T10:23:46;25.08;;;12.98;;
42912;SDS011;50720;54.324;18.558;2024-03-08T10:26:30;21.00;;;9.40;;
42912;SDS011;50720;54.324;18.558;2024-03-08T10:29:13;22.75;;;10.02;;
42912;SDS011;50720;54.324;18.558;2024-03-08T10:31:59;15.90;;;7.60;;
42912;SDS011;50720;54.324;18.558;2024-03-08T10:34:44;10.73;;;6.47;;
42912;SDS011;50720;54.324;18.558;2024-03-08T10:37:30;11.32;;;5.80;;
42912;SDS011;50720;54.324;18.558;2024-03-08T10:40:15;14.45;;;7.47;;
42912;SDS011;50720;54.324;18.558;2024-03-08T10:43:00;12.63;;;6.47;;
42912;SDS011;50720;54.324;18.558;2024-03-08T10:45:45;13.95;;;7.57;;
42912;SDS011;50720;54.324;18.558;2024-03-08T10:48:31;14.73;;;7.43;;
42912;SDS011;50720;54.324;18.558;2024-03-08T10:51:20;14.57;;;7.43;;
42912;SDS011;50720;54.324;18.558;2024-03-08T10:54:05;12.75;;;6.75;;
42912;SDS011;50720;54.324;18.558;2024-03-08T10:56:52;11.18;;;6.35;;
42912;SDS011;50720;54.324;18.558;2024-03-08T10:59:36;8.35;;;4.38;;
42912;SDS011;50720;54.324;18.558;2024-03-08T11:02:20;5.68;;;3.63;;
42912;SDS011;50720;54.324;18.558;2024-03-08T11:05:04;11.63;;;4.43;;
42912;SDS011;50720;54.324;18.558;2024-03-08T11:07:54;10.15;;;5.18;;
42912;SDS011;50720;54.324;18.558;2024-03-08T11:10:47;8.70;;;4.20;;
42912;SDS011;50720;54.324;18.558;2024-03-08T11:13:33;11.30;;;4.75;;
42912;SDS011;50720;54.324;18.558;2024-03-08T11:16:36;13.20;;;6.70;;
42912;SDS011;50720;54.324;18.558;2024-03-08T11:19:24;12.02;;;5.18;;
42912;SDS011;50720;54.324;18.558;2024-03-08T11:22:13;12.23;;;7.63;;
42912;SDS011;50720;54.324;18.558;2024-03-08T11:25:08;10.38;;;6.25;;
42912;SDS011;50720;54.324;18.558;2024-03-08T11:27:57;12.77;;;6.28;;
42912;SDS011;50720;54.324;18.558;2024-03-08T11:34:14;18.95;;;10.85;;
42912;SDS011;50720;54.324;18.558;2024-03-08T11:37:00;30.08;;;13.82;;
42912;SDS011;50720;54.324;18.558;2024-03-08T11:39:47;36.15;;;17.00;;
42912;SDS011;50720;54.324;18.558;2024-03-08T11:42:32;26.55;;;14.98;;
42912;SDS011;50720;54.324;18.558;2024-03-08T11:45:20;36.85;;;15.38;;
42912;SDS011;50720;54.324;18.558;2024-03-08T11:48:04;25.10;;;14.07;;
42912;SDS011;50720;54.324;18.558;2024-03-08T11:50:51;23.30;;;13.35;;
42912;SDS011;50720;54.324;18.558;2024-03-08T11:53:46;23.83;;;13.15;;
42912;SDS011;50720;54.324;18.558;2024-03-08T11:56:32;22.50;;;10.40;;
42912;SDS011;50720;54.324;18.558;2024-03-08T11:59:15;20.80;;;11.40;;
42912;SDS011;50720;54.324;18.558;2024-03-08T12:02:02;25.88;;;11.80;;
42912;SDS011;50720;54.324;18.558;2024-03-08T12:04:55;22.25;;;11.18;;
42912;SDS011;50720;54.324;18.558;2024-03-08T12:07:42;19.65;;;11.15;;
42912;SDS011;50720;54.324;18.558;2024-03-08T12:10:25;17.45;;;10.90;;
42912;SDS011;50720;54.324;18.558;2024-03-08T12:13:09;23.85;;;12.25;;
42912;SDS011;50720;54.324;18.558;2024-03-08T12:15:56;20.02;;;9.93;;
42912;SDS011;50720;54.324;18.558;2024-03-08T12:18:42;22.00;;;10.10;;
42912;SDS011;50720;54.324;18.558;2024-03-08T12:21:27;23.65;;;10.68;;
42912;SDS011;50720;54.324;18.558;2024-03-08T12:24:11;18.63;;;9.23;;
42912;SDS011;50720;54.324;18.558;2024-03-08T12:26:58;22.02;;;8.95;;
42912;SDS011;50720;54.324;18.558;2024-03-08T12:29:41;24.92;;;10.35;;
42912;SDS011;50720;54.324;18.558;2024-03-08T12:32:25;22.27;;;10.32;;
42912;SDS011;50720;54.324;18.558;2024-03-08T12:35:12;16.10;;;9.57;;
42912;SDS011;50720;54.324;18.558;2024-03-08T12:37:56;15.45;;;8.63;;
42912;SDS011;50720;54.324;18.558;2024-03-08T12:40:41;17.98;;;9.32;;
42912;SDS011;50720;54.324;18.558;2024-03-08T12:43:24;20.98;;;8.73;;
42912;SDS011;50720;54.324;18.558;2024-03-08T12:46:12;19.20;;;7.82;;
42912;SDS011;50720;54.324;18.558;2024-03-08T12:48:56;17.05;;;8.45;;
42912;SDS011;50720;54.324;18.558;2024-03-08T12:51:42;13.90;;;8.13;;
42912;SDS011;50720;54.324;18.558;2024-03-08T12:54:26;20.08;;;8.10;;
42912;SDS011;50720;54.324;18.558;2024-03-08T12:57:10;16.42;;;8.13;;
42912;SDS011;50720;54.324;18.558;2024-03-08T12:59:53;16.65;;;7.80;;
42912;SDS011;50720;54.324;18.558;2024-03-08T13:02:37;20.98;;;8.75;;
42912;SDS011;50720;54.324;18.558;2024-03-08T13:05:21;14.35;;;7.78;;
42912;SDS011;50720;54.324;18.558;2024-03-08T13:08:07;15.23;;;8.88;;
42912;SDS011;50720;54.324;18.558;2024-03-08T13:10:54;15.68;;;8.38;;
42912;SDS011;50720;54.324;18.558;2024-03-08T13:13:38;12.20;;;7.63;;
42912;SDS011;50720;54.324;18.558;2024-03-08T13:16:22;15.40;;;8.57;;
42912;SDS011;50720;54.324;18.558;2024-03-08T13:19:06;19.00;;;10.05;;
42912;SDS011;50720;54.324;18.558;2024-03-08T13:21:50;14.73;;;8.23;;
42912;SDS011;50720;54.324;18.558;2024-03-08T13:24:36;13.30;;;7.20;;
42912;SDS011;50720;54.324;18.558;2024-03-08T13:27:19;15.98;;;8.15;;
42912;SDS011;50720;54.324;18.558;2024-03-08T13:30:04;11.55;;;7.25;;
42912;SDS011;50720;54.324;18.558;2024-03-08T13:32:48;12.15;;;8.00;;
42912;SDS011;50720;54.324;18.558;2024-03-08T13:35:32;14.45;;;6.63;;
42912;SDS011;50720;54.324;18.558;2024-03-08T13:38:16;14.30;;;6.22;;
42912;SDS011;50720;54.324;18.558;2024-03-08T13:41:03;14.13;;;6.18;;
42912;SDS011;50720;54.324;18.558;2024-03-08T13:43:47;12.30;;;6.10;;
42912;SDS011;50720;54.324;18.558;2024-03-08T13:46:31;13.07;;;6.78;;
42912;SDS011;50720;54.324;18.558;2024-03-08T13:49:15;11.05;;;6.03;;
42912;SDS011;50720;54.324;18.558;2024-03-08T13:51:58;9.27;;;5.03;;
42912;SDS011;50720;54.324;18.558;2024-03-08T13:54:43;11.27;;;6.10;;
42912;SDS011;50720;54.324;18.558;2024-03-08T13:57:29;10.85;;;5.45;;
42912;SDS011;50720;54.324;18.558;2024-03-08T14:00:14;7.93;;;4.40;;
42912;SDS011;50720;54.324;18.558;2024-03-08T14:02:58;6.60;;;4.45;;
42912;SDS011;50720;54.324;18.558;2024-03-08T14:05:42;6.75;;;3.55;;
42912;SDS011;50720;54.324;18.558;2024-03-08T14:08:29;11.73;;;4.63;;
42912;SDS011;50720;54.324;18.558;2024-03-08T14:11:14;7.35;;;3.95;;
42912;SDS011;50720;54.324;18.558;2024-03-08T14:14:02;6.47;;;4.15;;
42912;SDS011;50720;54.324;18.558;2024-03-08T14:16:46;5.00;;;3.60;;
42912;SDS011;50720;54.324;18.558;2024-03-08T14:19:29;4.10;;;3.42;;
42912;SDS011;50720;54.324;18.558;2024-03-08T14:22:13;6.25;;;3.30;;
42912;SDS011;50720;54.324;18.558;2024-03-08T14:24:57;3.75;;;2.88;;
42912;SDS011;50720;54.324;18.558;2024-03-08T14:27:43;5.53;;;3.25;;
42912;SDS011;50720;54.324;18.558;2024-03-08T14:30:28;5.13;;;2.53;;
42912;SDS011;50720;54.324;18.558;2024-03-08T14:33:16;4.73;;;3.57;;
42912;SDS011;50720;54.324;18.558;2024-03-08T14:36:00;9.05;;;3.42;;
42912;SDS011;50720;54.324;18.558;2024-03-08T14:38:44;9.60;;;3.50;;
42912;SDS011;50720;54.324;18.558;2024-03-08T14:41:28;6.32;;;3.38;;
42912;SDS011;50720;54.324;18.558;2024-03-08T14:44:12;5.10;;;2.70;;
42912;SDS011;50720;54.324;18.558;2024-03-08T14:46:57;6.05;;;2.97;;
42912;SDS011;50720;54.324;18.558;2024-03-08T14:49:41;7.43;;;2.60;;
42912;SDS011;50720;54.324;18.558;2024-03-08T14:52:25;3.97;;;3.10;;
42912;SDS011;50720;54.324;18.558;2024-03-08T14:55:11;6.70;;;3.13;;
42912;SDS011;50720;54.324;18.558;2024-03-08T14:57:56;4.57;;;3.15;;
42912;SDS011;50720;54.324;18.558;2024-03-08T15:00:39;6.28;;;3.05;;
42912;SDS011;50720;54.324;18.558;2024-03-08T15:03:24;9.90;;;3.95;;
42912;SDS011;50720;54.324;18.558;2024-03-08T15:06:08;8.05;;;3.72;;
42912;SDS011;50720;54.324;18.558;2024-03-08T15:08:52;3.45;;;3.15;;
42912;SDS011;50720;54.324;18.558;2024-03-08T15:11:37;6.45;;;3.03;;
42912;SDS011;50720;54.324;18.558;2024-03-08T15:14:21;6.43;;;2.90;;
42912;SDS011;50720;54.324;18.558;2024-03-08T15:17:06;4.25;;;3.15;;
42912;SDS011;50720;54.324;18.558;2024-03-08T15:19:55;4.30;;;2.45;;
42912;SDS011;50720;54.324;18.558;2024-03-08T15:22:39;4.97;;;3.45;;
42912;SDS011;50720;54.324;18.558;2024-03-08T15:25:22;5.20;;;3.60;;
42912;SDS011;50720;54.324;18.558;2024-03-08T15:28:08;8.05;;;3.97;;
42912;SDS011;50720;54.324;18.558;2024-03-08T15:30:56;9.15;;;3.58;;
42912;SDS011;50720;54.324;18.558;2024-03-08T15:33:46;3.30;;;2.97;;
42912;SDS011;50720;54.324;18.558;2024-03-08T15:36:34;8.73;;;3.80;;
42912;SDS011;50720;54.324;18.558;2024-03-08T15:39:18;5.65;;;3.55;;
42912;SDS011;50720;54.324;18.558;2024-03-08T15:42:04;4.25;;;2.85;;
42912;SDS011;50720;54.324;18.558;2024-03-08T15:44:48;7.57;;;3.63;;
42912;SDS011;50720;54.324;18.558;2024-03-08T15:47:34;7.30;;;3.47;;
42912;SDS011;50720;54.324;18.558;2024-03-08T15:50:18;7.75;;;4.38;;
42912;SDS011;50720;54.324;18.558;2024-03-08T15:53:06;6.18;;;3.00;;
42912;SDS011;50720;54.324;18.558;2024-03-08T15:55:50;4.80;;;3.70;;
42912;SDS011;50720;54.324;18.558;2024-03-08T15:58:33;7.30;;;3.60;;